createdAt,value
2018-06-11T00:02:31.319Z,17.10
2018-06-11T00:05:41.988Z,17.00
2018-06-11T00:08:51.887Z,16.90
2018-06-11T00:12:01.911Z,17.00
2018-06-11T00:15:12.727Z,16.90
2018-06-11T00:18:23.139Z,16.90
2018-06-11T00:21:33.524Z,16.90
2018-06-11T00:24:43.474Z,16.80
2018-06-11T00:27:53.671Z,16.90
2018-06-11T00:31:04.325Z,16.90
2018-06-11T00:34:14.423Z,16.80
2018-06-11T00:37:25.281Z,16.70
2018-06-11T00:40:35.175Z,16.80
2018-06-11T00:43:45.099Z,16.70
2018-06-11T00:46:56.002Z,16.70
2018-06-11T00:50:06.335Z,16.60
2018-06-11T00:53:16.628Z,16.40
2018-06-11T00:56:27.399Z,16.20
2018-06-11T00:59:37.382Z,16.30
2018-06-11T01:02:47.299Z,16.40
2018-06-11T01:05:57.426Z,16.50
2018-06-11T01:09:08.232Z,16.50
2018-06-11T01:12:18.256Z,16.40
2018-06-11T01:15:28.862Z,16.30
2018-06-11T01:18:39.584Z,16.40
2018-06-11T01:21:49.435Z,16.50
2018-06-11T01:25:00.298Z,16.50
2018-06-11T01:28:11.244Z,16.40
2018-06-11T01:31:22.178Z,16.50
2018-06-11T01:37:42.896Z,16.50
2018-06-11T01:40:52.745Z,16.50
2018-06-11T01:44:02.645Z,16.40
2018-06-11T01:47:13.419Z,16.20
2018-06-11T01:50:23.619Z,16.20
2018-06-11T01:53:34.138Z,16.30
2018-06-11T01:56:44.274Z,16.20
2018-06-11T01:59:55.000Z,16.30
2018-06-11T02:03:05.875Z,16.30
2018-06-11T02:06:16.776Z,16.30
2018-06-11T02:09:26.850Z,16.20
2018-06-11T02:12:36.974Z,16.30
2018-06-11T02:15:47.576Z,16.30
2018-06-11T02:18:58.264Z,16.30
2018-06-11T02:22:09.103Z,16.30
2018-06-11T02:25:19.668Z,16.40
2018-06-11T02:28:29.871Z,16.40
2018-06-11T02:31:40.623Z,16.40
2018-06-11T02:38:26.503Z,16.50
2018-06-11T02:41:37.419Z,16.50
2018-06-11T02:44:48.364Z,16.50
2018-06-11T02:47:59.263Z,16.50
2018-06-11T02:51:10.351Z,16.40
2018-06-11T02:54:20.935Z,16.30
2018-06-11T02:57:31.793Z,16.30
2018-06-11T03:00:45.839Z,16.40
2018-06-11T03:03:56.404Z,16.50
2018-06-11T03:07:07.320Z,16.40
2018-06-11T03:10:18.102Z,16.40
2018-06-11T03:13:28.828Z,16.30
2018-06-11T03:16:38.658Z,16.40
2018-06-11T03:19:49.644Z,16.50
2018-06-11T03:23:00.310Z,16.60
2018-06-11T03:26:10.303Z,16.60
2018-06-11T03:29:20.325Z,16.70
2018-06-11T03:32:30.203Z,16.70
2018-06-11T03:35:41.078Z,16.80
2018-06-11T03:38:51.465Z,16.80
2018-06-11T03:42:02.116Z,16.90
2018-06-11T03:45:13.258Z,16.90
2018-06-11T03:48:23.799Z,16.90
2018-06-11T03:51:34.771Z,17.00
2018-06-11T03:54:45.141Z,17.00
2018-06-11T03:57:55.877Z,16.90
2018-06-11T04:01:06.110Z,16.90
2018-06-11T04:04:16.503Z,16.90
2018-06-11T04:07:27.299Z,17.00
2018-06-11T04:10:37.231Z,17.00
2018-06-11T04:13:47.956Z,17.00
2018-06-11T04:16:58.776Z,17.00
2018-06-11T04:20:09.522Z,17.10
2018-06-11T04:23:20.260Z,17.00
2018-06-11T04:26:30.135Z,17.10
2018-06-11T04:29:40.970Z,17.10
2018-06-11T04:32:51.708Z,17.10
2018-06-11T04:36:02.586Z,17.10
2018-06-11T04:39:12.796Z,17.10
2018-06-11T04:42:23.626Z,17.10
2018-06-11T04:45:33.739Z,17.20
2018-06-11T04:48:43.908Z,17.20
2018-06-11T04:51:55.330Z,17.30
2018-06-11T04:55:05.500Z,17.20
2018-06-11T04:58:16.077Z,17.30
2018-06-11T05:01:26.992Z,17.30
2018-06-11T05:04:36.808Z,17.30
2018-06-11T05:07:47.822Z,17.40
2018-06-11T05:10:58.456Z,17.40
2018-06-11T05:14:08.359Z,17.40
2018-06-11T05:17:19.207Z,17.40
2018-06-11T05:20:30.036Z,17.40
2018-06-11T05:23:40.277Z,17.40
2018-06-11T05:26:51.144Z,17.40
2018-06-11T05:30:00.992Z,17.50
2018-06-11T05:33:12.367Z,17.50
2018-06-11T05:36:22.626Z,17.50
2018-06-11T05:39:33.448Z,17.60
2018-06-11T05:42:43.444Z,17.60
2018-06-11T05:45:53.441Z,17.60
2018-06-11T05:49:03.350Z,17.70
2018-06-11T05:52:13.845Z,17.70
2018-06-11T05:55:24.661Z,17.70
2018-06-11T05:58:35.404Z,17.70
2018-06-11T06:01:45.524Z,17.70
2018-06-11T06:04:56.328Z,17.80
2018-06-11T06:08:07.152Z,17.90
2018-06-11T06:11:17.046Z,18.00
2018-06-11T06:14:27.744Z,18.10
2018-06-11T06:17:37.673Z,18.00
2018-06-11T06:20:47.552Z,18.10
2018-06-11T06:23:57.627Z,18.20
2018-06-11T06:27:08.846Z,18.20
2018-06-11T06:30:19.471Z,18.10
2018-06-11T06:33:29.372Z,18.10
2018-06-11T06:36:39.770Z,18.20
2018-06-11T06:39:50.434Z,18.20
2018-06-11T06:43:01.353Z,18.30
2018-06-11T06:46:12.024Z,18.30
2018-06-11T06:52:33.308Z,18.20
2018-06-11T06:55:43.614Z,18.30
2018-06-11T06:58:54.433Z,18.30
2018-06-11T07:02:05.259Z,18.30
2018-06-11T07:05:15.951Z,18.40
2018-06-11T07:08:27.594Z,18.40
2018-06-11T07:11:37.885Z,18.40
2018-06-11T07:14:48.514Z,18.50
2018-06-11T07:17:59.174Z,18.50
2018-06-11T07:21:09.085Z,18.50
2018-06-11T07:24:19.763Z,18.60
2018-06-11T07:27:30.369Z,18.60
2018-06-11T07:30:41.111Z,18.60
2018-06-11T07:33:51.808Z,18.60
2018-06-11T07:37:02.588Z,18.60
2018-06-11T07:40:13.436Z,18.50
2018-06-11T07:43:24.234Z,18.50
2018-06-11T07:46:35.031Z,18.50
2018-06-11T07:49:45.713Z,18.60
2018-06-11T07:52:55.844Z,18.60
2018-06-11T07:56:06.601Z,18.60
2018-06-11T07:59:17.355Z,18.60
2018-06-11T08:02:27.236Z,18.70
2018-06-11T08:05:38.067Z,18.60
2018-06-11T08:08:48.908Z,18.70
2018-06-11T08:11:59.745Z,18.80
2018-06-11T08:15:09.817Z,18.90
2018-06-11T08:18:20.371Z,19.00
2018-06-11T08:21:30.319Z,19.00
2018-06-11T08:24:40.248Z,18.90
2018-06-11T08:27:50.113Z,19.00
2018-06-11T08:31:00.106Z,19.20
2018-06-11T08:34:10.632Z,19.20
2018-06-11T08:37:21.357Z,19.30
2018-06-11T08:40:32.241Z,19.40
2018-06-11T08:43:43.042Z,19.50
2018-06-11T08:46:53.783Z,19.60
2018-06-11T08:50:04.059Z,19.60
2018-06-11T08:53:15.082Z,19.60
2018-06-11T08:56:25.529Z,19.50
2018-06-11T08:59:36.257Z,19.40
2018-06-11T09:02:46.140Z,19.40
2018-06-11T09:05:56.050Z,19.30
2018-06-11T09:09:08.224Z,19.50
2018-06-11T09:12:18.813Z,19.60
2018-06-11T09:15:29.603Z,19.60
2018-06-11T09:18:40.472Z,19.60
2018-06-11T09:21:52.024Z,19.60
2018-06-11T09:25:02.814Z,19.60
2018-06-11T09:28:13.607Z,19.60
2018-06-11T09:31:24.444Z,19.90
2018-06-11T09:34:34.298Z,20.10
2018-06-11T09:37:45.135Z,20.20
2018-06-11T09:40:55.092Z,20.20
2018-06-11T09:44:06.006Z,20.60
2018-06-11T09:47:16.752Z,20.60
2018-06-11T09:50:27.360Z,20.60
2018-06-11T09:53:38.460Z,20.70
2018-06-11T09:56:48.845Z,20.70
2018-06-11T09:59:58.827Z,20.80
2018-06-11T10:03:08.789Z,21.00
2018-06-11T10:06:19.686Z,21.00
2018-06-11T10:09:30.530Z,20.80
2018-06-11T10:12:41.228Z,21.10
2018-06-11T10:15:51.088Z,21.10
2018-06-11T10:19:02.350Z,21.30
2018-06-11T10:22:13.170Z,21.10
2018-06-11T10:25:23.967Z,21.40
2018-06-11T10:28:34.541Z,21.40
2018-06-11T10:31:45.312Z,21.30
2018-06-11T10:34:55.348Z,21.60
2018-06-11T10:38:05.288Z,21.80
2018-06-11T10:41:15.976Z,21.70
2018-06-11T10:44:26.052Z,21.80
2018-06-11T10:47:36.731Z,21.60
2018-06-11T10:50:47.415Z,21.90
2018-06-11T10:53:59.040Z,21.90
2018-06-11T11:00:19.391Z,22.00
2018-06-11T11:03:30.216Z,21.80
2018-06-11T11:06:40.237Z,22.00
2018-06-11T11:09:50.703Z,22.10
2018-06-11T11:13:00.660Z,22.20
2018-06-11T11:16:11.378Z,22.20
2018-06-11T11:19:22.183Z,22.20
2018-06-11T11:22:32.879Z,22.20
2018-06-11T11:25:43.712Z,22.10
2018-06-11T11:28:54.686Z,22.30
2018-06-11T11:32:05.357Z,22.10
2018-06-11T11:35:15.757Z,22.10
2018-06-11T11:38:26.510Z,22.30
2018-06-11T11:41:37.382Z,22.10
2018-06-11T11:44:48.147Z,22.40
2018-06-11T11:47:58.021Z,22.40
2018-06-11T11:51:07.849Z,22.20
2018-06-11T11:54:18.650Z,22.50
2018-06-11T11:57:29.147Z,22.30
2018-06-11T12:00:39.344Z,22.40
2018-06-11T12:03:49.655Z,22.80
2018-06-11T12:07:01.695Z,22.90
2018-06-11T12:10:12.129Z,22.90
2018-06-11T12:13:22.319Z,22.90
2018-06-11T12:16:32.063Z,23.20
2018-06-11T12:19:42.026Z,23.30
2018-06-11T12:22:52.122Z,23.50
2018-06-11T12:26:02.342Z,23.20
2018-06-11T12:29:12.858Z,23.20
2018-06-11T12:32:22.724Z,23.10
2018-06-11T12:35:32.312Z,23.10
2018-06-11T12:38:47.019Z,23.10
2018-06-11T12:41:57.145Z,23.10
2018-06-11T12:45:06.924Z,23.30
2018-06-11T12:48:16.681Z,23.60
2018-06-11T12:51:26.640Z,23.70
2018-06-11T12:54:37.409Z,23.60
2018-06-11T12:57:48.009Z,23.30
2018-06-11T13:00:57.718Z,23.30
2018-06-11T13:04:07.740Z,23.40
2018-06-11T13:07:17.434Z,23.50
2018-06-11T13:10:27.198Z,23.30
2018-06-11T13:13:37.138Z,23.70
2018-06-11T13:16:47.736Z,23.70
2018-06-11T13:19:58.488Z,23.60
2018-06-11T13:23:08.343Z,23.30
2018-06-11T13:26:18.284Z,23.30
2018-06-11T13:29:28.571Z,23.50
2018-06-11T13:32:39.026Z,23.80
2018-06-11T13:35:49.123Z,23.90
2018-06-11T13:38:59.478Z,23.80
2018-06-11T13:42:09.323Z,23.60
2018-06-11T13:45:19.036Z,23.40
2018-06-11T13:48:28.973Z,23.50
2018-06-11T13:51:38.575Z,23.50
2018-06-11T13:54:48.806Z,23.60
2018-06-11T13:57:59.125Z,23.60
2018-06-11T14:01:09.035Z,23.60
2018-06-11T14:04:18.767Z,23.60
2018-06-11T14:07:29.366Z,23.40
2018-06-11T14:10:39.379Z,23.60
2018-06-11T14:13:49.385Z,23.60
2018-06-11T14:16:59.087Z,23.60
2018-06-11T14:20:09.631Z,23.40
2018-06-11T14:23:19.431Z,23.50
2018-06-11T14:26:29.436Z,23.50
2018-06-11T14:29:39.117Z,23.40
2018-06-11T14:32:49.082Z,23.40
2018-06-11T14:35:58.945Z,23.40
2018-06-11T14:39:09.707Z,23.50
2018-06-11T14:42:20.265Z,23.40
2018-06-11T14:45:29.963Z,23.40
2018-06-11T14:48:39.743Z,23.40
2018-06-11T14:51:50.104Z,23.30
2018-06-11T14:54:59.951Z,23.00
2018-06-11T14:58:10.688Z,22.90
2018-06-11T15:01:21.260Z,22.80
2018-06-11T15:04:31.364Z,22.80
2018-06-11T15:07:41.839Z,22.70
2018-06-11T15:10:51.889Z,22.70
2018-06-11T15:14:02.547Z,22.60
2018-06-11T15:17:12.669Z,22.70
2018-06-11T15:20:23.045Z,22.80
2018-06-11T15:23:33.308Z,22.80
2018-06-11T15:26:44.103Z,22.70
2018-06-11T15:29:54.867Z,22.70
2018-06-11T15:33:05.825Z,22.80
2018-06-11T15:36:16.368Z,22.50
2018-06-11T15:39:27.028Z,22.70
2018-06-11T15:42:37.744Z,22.60
2018-06-11T15:45:48.273Z,22.50
2018-06-11T15:48:59.103Z,22.30
2018-06-11T15:52:09.854Z,22.40
2018-06-11T15:55:20.819Z,22.50
2018-06-11T15:58:31.265Z,22.40
2018-06-11T16:01:41.676Z,22.50
2018-06-11T16:04:52.420Z,22.50
2018-06-11T16:08:03.303Z,22.60
2018-06-11T16:11:13.844Z,22.60
2018-06-11T16:14:24.666Z,22.50
2018-06-11T16:17:35.178Z,22.40
2018-06-11T16:20:45.948Z,22.50
2018-06-11T16:23:56.646Z,22.50
2018-06-11T16:27:06.672Z,22.40
2018-06-11T16:30:17.448Z,22.40
2018-06-11T16:36:37.989Z,22.30
2018-06-11T16:39:48.549Z,22.20
2018-06-11T16:42:58.495Z,22.20
2018-06-11T16:46:09.118Z,22.40
2018-06-11T16:49:19.887Z,22.50
2018-06-11T16:52:30.600Z,22.50
2018-06-11T16:55:41.385Z,22.60
2018-06-11T16:58:52.152Z,22.50
2018-06-11T17:02:02.304Z,22.30
2018-06-11T17:05:12.975Z,22.30
2018-06-11T17:08:24.430Z,22.30
2018-06-11T17:11:34.382Z,22.30
2018-06-11T17:14:45.084Z,22.30
2018-06-11T17:17:56.184Z,22.30
2018-06-11T17:21:07.380Z,22.30
2018-06-11T17:24:18.346Z,22.20
2018-06-11T17:27:28.332Z,22.10
2018-06-11T17:30:39.831Z,22.10
2018-06-11T17:33:50.419Z,22.00
2018-06-11T17:37:01.765Z,21.90
2018-06-11T17:40:12.750Z,21.90
2018-06-11T17:43:23.648Z,21.90
2018-06-11T17:46:34.680Z,22.00
2018-06-11T17:49:45.859Z,21.90
2018-06-11T17:52:56.342Z,21.80
2018-06-11T17:56:07.475Z,21.80
2018-06-11T17:59:18.201Z,21.80
2018-06-11T18:02:28.937Z,21.60
2018-06-11T18:06:02.561Z,21.60
2018-06-11T18:09:15.769Z,21.40
2018-06-11T18:12:26.628Z,21.30
2018-06-11T18:15:38.092Z,21.40
2018-06-11T18:18:53.796Z,21.40
2018-06-11T18:22:13.911Z,21.40
2018-06-11T18:25:27.803Z,21.20
2018-06-11T18:28:42.641Z,21.10
2018-06-11T18:32:18.462Z,21.20
2018-06-11T18:35:29.622Z,21.20
2018-06-11T18:38:41.102Z,21.20
2018-06-11T18:41:52.108Z,21.20
2018-06-11T18:45:24.141Z,21.20
2018-06-11T18:48:46.579Z,21.10
2018-06-11T18:51:57.567Z,21.10
2018-06-11T18:55:08.251Z,21.20
2018-06-11T18:58:22.246Z,21.10
2018-06-11T19:01:32.860Z,21.10
2018-06-11T19:04:43.371Z,21.10
2018-06-11T19:07:54.593Z,21.00
2018-06-11T19:11:05.589Z,20.90
2018-06-11T19:14:16.365Z,20.90
2018-06-11T19:17:26.993Z,20.90
2018-06-11T19:20:38.039Z,20.90
2018-06-11T19:23:49.509Z,20.90
2018-06-11T19:26:59.880Z,20.90
2018-06-11T19:30:11.048Z,20.90
2018-06-11T19:33:21.976Z,20.80
2018-06-11T19:36:32.523Z,20.80
2018-06-11T19:39:43.579Z,20.80
2018-06-11T19:42:54.250Z,20.70
2018-06-11T19:46:05.114Z,20.70
2018-06-11T19:49:15.454Z,20.70
2018-06-11T19:58:47.800Z,20.60
2018-06-11T20:01:58.457Z,20.60
2018-06-11T20:05:08.692Z,20.50
2018-06-11T20:08:19.321Z,20.40
2018-06-11T20:11:30.381Z,20.50
2018-06-11T20:14:40.797Z,20.60
2018-06-11T20:17:51.615Z,20.60
2018-06-11T20:21:01.935Z,20.60
2018-06-11T20:24:13.201Z,20.50
2018-06-11T20:27:23.687Z,20.50
2018-06-11T20:30:34.559Z,20.50
2018-06-11T20:33:44.948Z,20.50
2018-06-11T20:40:06.568Z,20.40
2018-06-11T20:43:17.420Z,20.50
2018-06-11T20:49:39.146Z,20.40
2018-06-11T20:52:49.937Z,20.40
2018-06-11T20:56:00.566Z,20.50
2018-06-11T20:59:11.566Z,20.30
2018-06-11T21:02:22.408Z,20.30
2018-06-11T21:05:33.274Z,20.20
2018-06-11T21:08:44.052Z,20.20
2018-06-11T21:11:54.664Z,20.10
2018-06-11T21:15:05.456Z,20.00
2018-06-11T21:18:16.222Z,20.00
2018-06-11T21:21:26.535Z,19.90
2018-06-11T21:24:43.153Z,19.80
2018-06-11T21:27:53.974Z,19.70
2018-06-11T21:31:06.872Z,19.60
2018-06-11T21:34:17.483Z,19.40
2018-06-11T21:37:27.555Z,19.20
2018-06-11T21:40:38.540Z,19.00
2018-06-11T21:43:49.531Z,18.90
2018-06-11T21:47:00.150Z,18.80
2018-06-11T21:50:10.450Z,18.60
2018-06-11T21:53:21.079Z,18.60
2018-06-11T21:56:31.540Z,18.30
2018-06-11T21:59:43.337Z,18.30
2018-06-11T22:02:53.435Z,18.20
2018-06-11T22:06:03.496Z,18.30
2018-06-11T22:09:13.454Z,18.30
2018-06-11T22:12:24.132Z,18.40
2018-06-11T22:15:34.636Z,18.40
2018-06-11T22:18:45.486Z,18.30
2018-06-11T22:21:56.121Z,18.10
2018-06-11T22:25:06.492Z,18.00
2018-06-11T22:28:16.478Z,17.90
2018-06-11T22:31:26.368Z,17.90
2018-06-11T22:34:37.040Z,17.90
2018-06-11T22:37:47.666Z,17.90
2018-06-11T22:40:58.483Z,17.90
2018-06-11T22:44:09.407Z,17.90
2018-06-11T22:47:20.519Z,17.70
2018-06-11T22:50:31.079Z,17.70
2018-06-11T22:53:41.599Z,17.70
2018-06-11T22:56:51.606Z,17.60
2018-06-11T23:00:02.008Z,17.50
2018-06-11T23:03:12.635Z,17.40
2018-06-11T23:06:23.323Z,17.30
2018-06-11T23:12:44.302Z,17.20
2018-06-11T23:15:54.261Z,17.20
2018-06-11T23:19:05.339Z,17.20
2018-06-11T23:22:16.219Z,17.00
2018-06-11T23:25:26.791Z,17.00
2018-06-11T23:28:37.523Z,17.10
2018-06-11T23:31:48.211Z,17.10
2018-06-11T23:34:58.951Z,17.00
2018-06-11T23:38:09.649Z,16.90
2018-06-11T23:41:20.453Z,17.00
2018-06-11T23:44:31.069Z,17.00
2018-06-11T23:47:41.106Z,17.10
2018-06-11T23:50:51.704Z,17.20
2018-06-11T23:54:02.608Z,17.10
2018-06-11T23:57:12.998Z,17.20
